logo
Search for airport 
image banner adimage banner adimage banner ad
image banner ad

LODN - Knittelfeld Lkh

Located in District Murtal, Austria

ICAO - , IATA -

Data provided by Airmate  

General information

Coordinates: N47°12'58" E14°49'12"
Elevation is 2146 feet MSL.
 
View others Airports in Styria

Operational data

Special qualification required
Current time UTC:
Current local time:
Weather at : LOXZ - Zeltweg ( 6 km )
METAR: LOXZ 171650Z 10007KT 9999 FEW040 SCT060 BKN100 07/00 Q1005
TAF: TAF LOXZ 171115Z 1712/1721 VRB03KT 9999 FEW030 SCT060 TEMPO 1712/1717 07012KT -SHRA SCT030 FEW035TCU BKN050 PROB30 TEMPO 1713/1715 VRB10G20KT 5000 TSRA FEW010 BKN030 FEW040CB
View NOTAMs / SUP AIP / TFR affecting this airport [VIEW]
Communications frequencies: [VIEW]

Runways:

Airport contact information

Address: District Murtal Austria

Satellite view of LODN